Welcome to Northern Hawkes Bay. New Zealand.
PWS Header
      nz Flag



Hit Counter


W3C Valid W3C Valid logo


    Wairoa

Select any of the Stations below to visit their websites.










Historic Data from Weather Underground
Select the location of interest below. Wairoa is the default. Please have patience, this Data is slow to load in.
Northern Hawkes Bay Historical Data
Daily Summary for January 16, 2017 Units:  English    Metric   Both
« Previous Day
Next Day »
Daily Weekly Monthly Yearly Custom
  High: Low: Average:
Temperature: 84 °F 57.6 °F 71.1 °F
Dew Point: 60.4 °F 41.7 °F 51.8 °F
Humidity: 87% 28% 53%
Wind Speed: 9.8mph 0mph 3.5mph
Wind Gust: 15.9mph - -
Wind- - SW
Pressure: 29.9 in 29.6 in -
Precipitation: 0 in    
Historical Graphs
 
 
Tabular Data for January 16, 2017
Time Temperature Dew Point Pressure Wind Wind Speed Wind Gust Humidity Rainfall Rate (Hourly) solar
00:03 71.6 °F 49.8 °F 29.7 in NNW 9.2 mph 13 mph 46% 0 in 0 W/m2
00:08 71.4 °F 50.7 °F 29.7 in NW 6 mph 11.4 mph 48% 0 in 0 W/m2
00:13 71.2 °F 50 °F 29.7 in NNW 6.9 mph 12.1 mph 47% 0 in 0 W/m2
00:18 71.2 °F 50 °F 29.7 in NNW 6 mph 12.1 mph 47% 0 in 0 W/m2
00:24 70.9 °F 50.2 °F 29.7 in NNW 8.3 mph 11.4 mph 48% 0 in 0 W/m2
00:29 70.5 °F 49.8 °F 29.7 in NNW 7.6 mph 13 mph 48% 0 in 0 W/m2
00:34 70.5 °F 49.8 °F 29.7 in NNW 9.2 mph 13.6 mph 48% 0 in 0 W/m2
00:39 70.3 °F 49.3 °F 29.7 in NW 6.9 mph 15.9 mph 47% 0 in 0 W/m2
00:44 70.2 °F 48.9 °F 29.7 in NW 9.2 mph 15.9 mph 47% 0 in 0 W/m2
00:49 70 °F 48.9 °F 29.7 in NNW 7.6 mph 14.5 mph 47% 0 in 0 W/m2
00:54 69.8 °F 49.3 °F 29.7 in NNW 6.9 mph 15.9 mph 48% 0 in 0 W/m2
00:59 69.4 °F 50 °F 29.7 in NNW 6.9 mph 15.9 mph 50% 0 in 0 W/m2
01:04 69.3 °F 50.4 °F 29.7 in NNW 8.3 mph 15.9 mph 51% 0 in 0 W/m2
01:09 69.1 °F 50.2 °F 29.7 in NNW 6.9 mph 15.9 mph 51% 0 in 0 W/m2
01:14 68.9 °F 50.5 °F 29.7 in NNW 6.9 mph 12.1 mph 52% 0 in 0 W/m2
01:19 68.9 °F 50.5 °F 29.7 in NNW 6 mph 15.2 mph 52% 0 in 0 W/m2
01:24 68.5 °F 50.7 °F 29.7 in NNW 8.3 mph 15.2 mph 53% 0 in 0 W/m2
01:29 68.4 °F 50.5 °F 29.7 in North 8.3 mph 13 mph 53% 0 in 0 W/m2
01:34 68.2 °F 50.4 °F 29.7 in North 6 mph 12.1 mph 53% 0 in 0 W/m2
01:39 68.2 °F 50.4 °F 29.7 in NNW 7.6 mph 11.4 mph 53% 0 in 0 W/m2
01:44 68.2 °F 49.8 °F 29.6 in NNW 9.2 mph 14.5 mph 52% 0 in 0 W/m2
01:49 68.2 °F 49.8 °F 29.7 in NNW 8.3 mph 14.5 mph 52% 0 in 0 W/m2
01:55 68.2 °F 49.8 °F 29.7 in NW 5.4 mph 13.6 mph 52% 0 in 0 W/m2
02:00 68 °F 49.6 °F 29.6 in NW 5.4 mph 13 mph 52% 0 in 0 W/m2
02:05 68 °F 49.6 °F 29.6 in NNW 6 mph 13 mph 52% 0 in 0 W/m2
02:10 68 °F 49.6 °F 29.6 in NNW 7.6 mph 13.6 mph 52% 0 in 0 W/m2
02:15 68 °F 49.6 °F 29.6 in NNW 5.4 mph 13.6 mph 52% 0 in 0 W/m2
02:20 67.8 °F 50.2 °F 29.6 in NNW 3.8 mph 10.7 mph 53% 0 in 0 W/m2
02:25 67.5 °F 50.4 °F 29.7 in NNW 0.7 mph 8.3 mph 54% 0 in 0 W/m2
02:30 67.1 °F 49.8 °F 29.7 in NNE 2.2 mph 5.4 mph 54% 0 in 0 W/m2
02:35 66.6 °F 49.8 °F 29.7 in NE 2.2 mph 3.8 mph 55% 0 in 0 W/m2
02:40 66.2 °F 49.6 °F 29.6 in NNW 6 mph 8.3 mph 55% 0 in 0 W/m2
02:45 65.8 °F 50.2 °F 29.6 in NNW 3.8 mph 9.2 mph 57% 0 in 0 W/m2
02:50 65.7 °F 50 °F 29.7 in NNW 4.5 mph 9.2 mph 57% 0 in 0 W/m2
02:55 65.8 °F 50.2 °F 29.7 in East 6.9 mph 8.3 mph 57% 0 in 0 W/m2
03:00 66.6 °F 49.8 °F 29.7 in East 3.1 mph 8.3 mph 55% 0 in 0 W/m2
03:05 66.6 °F 49.5 °F 29.7 in NE 4.5 mph 8.3 mph 54% 0 in 0 W/m2
03:10 66.6 °F 49.5 °F 29.6 in North 6 mph 7.6 mph 54% 0 in 0 W/m2
03:14 66.2 °F 49.6 °F 29.7 in NNW 3.1 mph 7.6 mph 55% 0 in 0 W/m2
03:19 65.5 °F 49.5 °F 29.7 in North 0.7 mph 7.6 mph 56% 0 in 0 W/m2
03:24 64.9 °F 49.5 °F 29.7 in Calm   3.8 mph 57% 0 in 0 W/m2
03:29 64.6 °F 49.5 °F 29.7 in ENE 1.6 mph 3.1 mph 58% 0 in 0 W/m2
03:34 64.2 °F 50.2 °F 29.7 in NW 2.2 mph 3.1 mph 60% 0 in 0 W/m2
03:39 63.3 °F 49.6 °F 29.7 in Calm   3.1 mph 61% 0 in 0 W/m2
03:44 62.4 °F 49.6 °F 29.7 in SW 0.7 mph 3.1 mph 63% 0 in 0 W/m2
03:49 62.1 °F 49.8 °F 29.7 in ESE 0.7 mph 2.2 mph 64% 0 in 0 W/m2
03:54 61.9 °F 49.6 °F 29.7 in Calm   2.2 mph 64% 0 in 0 W/m2
03:59 61.9 °F 49.6 °F 29.7 in North 2.2 mph 3.1 mph 64% 0 in 0 W/m2
04:04 62.1 °F 49.8 °F 29.7 in NNW 3.1 mph 3.8 mph 64% 0 in 0 W/m2
04:24 61.2 °F 49.6 °F 29.7 in NW 4.5 mph 6 mph 66% 0 in 0 W/m2
04:29 60.6 °F 50 °F 29.7 in Calm   6 mph 68% 0 in 0 W/m2
04:34 60.3 °F 49.6 °F 29.7 in NW 1.6 mph 6 mph 68% 0 in 0 W/m2
04:39 60.1 °F 49.8 °F 29.7 in WNW 3.1 mph 4.5 mph 69% 0 in 0 W/m2
04:44 60.1 °F 50.7 °F 29.7 in NW 2.2 mph 4.5 mph 71% 0 in 0 W/m2
04:49 59.9 °F 50.9 °F 29.7 in NW 3.8 mph 5.4 mph 72% 0 in 0 W/m2
04:54 59.9 °F 50.9 °F 29.7 in NNW 1.6 mph 5.4 mph 72% 0 in 0 W/m2
04:59 59.7 °F 50.7 °F 29.7 in NNW 1.6 mph 5.4 mph 72% 0 in 0 W/m2
05:04 59.2 °F 50.5 °F 29.7 in Calm   3.8 mph 73% 0 in 0 W/m2
05:09 58.8 °F 50.5 °F 29.7 in Calm   3.8 mph 74% 0 in 0 W/m2
05:14 58.6 °F 51.1 °F 29.7 in NNW 0.7 mph 3.1 mph 76% 0 in 0 W/m2
05:19 58.5 °F 50.9 °F 29.7 in NNW 3.1 mph 4.5 mph 76% 0 in 0 W/m2
05:24 58.3 °F 51.1 °F 29.7 in NW 3.1 mph 6 mph 77% 0 in 0 W/m2
05:29 58.5 °F 51.3 °F 29.7 in NW 3.1 mph 6 mph 77% 0 in 0 W/m2
05:34 58.6 °F 51.1 °F 29.7 in NW 0.7 mph 6 mph 76% 0 in 0 W/m2
05:39 58.3 °F 50.4 °F 29.7 in NNW 1.6 mph 3.8 mph 75% 0 in 0 W/m2
05:44 58.8 °F 50.9 °F 29.7 in Calm   3.1 mph 75% 0 in 0 W/m2
05:49 59.4 °F 50.7 °F 29.7 in NNE 2.2 mph 3.1 mph 73% 0 in 0 W/m2
05:54 59.5 °F 50.5 °F 29.7 in NNW 0.7 mph 3.8 mph 72% 0 in 0 W/m2
05:59 59 °F 50 °F 29.7 in Calm   3.8 mph 72% 0 in 2 W/m2
06:04 58.5 °F 50.2 °F 29.7 in North 1.6 mph 3.8 mph 74% 0 in 4 W/m2
06:09 58.3 °F 50 °F 29.7 in North 3.1 mph 3.8 mph 74% 0 in 7 W/m2
06:14 58.1 °F 50.2 °F 29.7 in Calm   3.8 mph 75% 0 in 10 W/m2
06:19 58.1 °F 50.2 °F 29.7 in NW 0.7 mph 3.8 mph 75% 0 in 13 W/m2
06:24 57.7 °F 49.8 °F 29.7 in WNW 1.6 mph 3.1 mph 75% 0 in 16 W/m2
06:29 57.6 °F 50.2 °F 29.7 in WNW 3.1 mph 3.8 mph 76% 0 in 20 W/m2
06:34 57.6 °F 50.2 °F 29.7 in NNW 0.7 mph 3.8 mph 76% 0 in 23 W/m2
06:39 57.7 °F 50.5 °F 29.7 in Calm   3.8 mph 77% 0 in 38 W/m2
06:44 59 °F 51.8 °F 29.7 in Calm   2.2 mph 77% 0 in 53 W/m2
07:01 61.9 °F 50.7 °F 29.7 in NW 3.1 mph 6 mph 67% 0 in 85 W/m2
07:06 63.1 °F 50.7 °F 29.7 in NNW 3.8 mph 6 mph 64% 0 in 96 W/m2
07:11 64.2 °F 51.4 °F 29.7 in NNW 3.8 mph 6 mph 63% 0 in 105 W/m2
07:16 64.9 °F 51.6 °F 29.7 in North 3.1 mph 6 mph 62% 0 in 121 W/m2
07:22 65.5 °F 51.3 °F 29.7 in North 3.1 mph 6 mph 60% 0 in 139 W/m2
07:27 66.2 °F 51.1 °F 29.7 in NNW 3.8 mph 6 mph 58% 0 in 153 W/m2
07:32 66.2 °F 50.5 °F 29.7 in NNW 3.1 mph 7.6 mph 57% 0 in 168 W/m2
07:37 66.7 °F 51.1 °F 29.7 in NNW 5.4 mph 7.6 mph 57% 0 in 182 W/m2
07:42 66.7 °F 51.4 °F 29.7 in NNW 4.5 mph 7.6 mph 58% 0 in 195 W/m2
07:47 67.5 °F 51.6 °F 29.7 in NW 4.5 mph 8.3 mph 57% 0 in 209 W/m2
07:52 68.2 °F 51.4 °F 29.7 in NNW 3.1 mph 8.3 mph 55% 0 in 225 W/m2
07:57 68.9 °F 51.6 °F 29.8 in North 3.8 mph 7.6 mph 54% 0 in 244 W/m2
08:02 70.2 °F 51.6 °F 29.8 in NNW 3.8 mph 7.6 mph 52% 0 in 273 W/m2
08:07 71.1 °F 51.4 °F 29.8 in NNW 4.5 mph 8.3 mph 50% 0 in 295 W/m2
08:12 71.6 °F 49.8 °F 29.8 in NW 5.4 mph 10.7 mph 46% 0 in 309 W/m2
08:17 71.4 °F 48.9 °F 29.8 in WNW 4.5 mph 12.1 mph 45% 0 in 330 W/m2
08:22 71.8 °F 48.7 °F 29.8 in NW 6 mph 12.1 mph 44% 0 in 355 W/m2
08:27 71.6 °F 47.8 °F 29.8 in NW 4.5 mph 10.7 mph 43% 0 in 295 W/m2
08:32 71.6 °F 47.3 °F 29.8 in NW 5.4 mph 9.8 mph 42% 0 in 348 W/m2
08:37 72 °F 48.4 °F 29.8 in NW 2.2 mph 9.8 mph 43% 0 in 293 W/m2
08:42 72.5 °F 48.7 °F 29.8 in WNW 1.6 mph 9.2 mph 43% 0 in 379 W/m2
08:47 73.4 °F 50.7 °F 29.8 in WNW 2.2 mph 7.6 mph 45% 0 in 456 W/m2
08:52 74.1 °F 50.7 °F 29.8 in NW 3.1 mph 7.6 mph 44% 0 in 496 W/m2
08:57 75 °F 49.8 °F 29.8 in WNW 4.5 mph 7.6 mph 41% 0 in 453 W/m2
09:02 74.3 °F 49.1 °F 29.8 in West 3.1 mph 6 mph 41% 0 in 336 W/m2
09:07 73.6 °F 49.1 °F 29.8 in WSW 2.2 mph 6 mph 42% 0 in 303 W/m2
09:12 73.9 °F 50.2 °F 29.8 in WNW 6 mph 9.2 mph 43% 0 in 391 W/m2
09:17 73.4 °F 50.2 °F 29.8 in NW 4.5 mph 9.2 mph 44% 0 in 454 W/m2
09:19 73.6 °F 50.4 °F 29.8 in NW 3.1 mph 9.2 mph 44% 0 in 375 W/m2
09:24 73.2 °F 48.7 °F 29.8 in NW 3.8 mph 9.2 mph 42% 0 in 373 W/m2
09:29 73.2 °F 48.7 °F 29.8 in NW 4.5 mph 9.2 mph 42% 0 in 386 W/m2
09:34 73.2 °F 48 °F 29.8 in NW 7.6 mph 15.2 mph 41% 0 in 408 W/m2
09:39 73.2 °F 48.7 °F 29.8 in NW 3.1 mph 15.2 mph 42% 0 in 447 W/m2
09:44 73.8 °F 48.6 °F 29.8 in NW 6 mph 15.2 mph 41% 0 in 457 W/m2
09:49 73.2 °F 48 °F 29.8 in NW 6.9 mph 13 mph 41% 0 in 601 W/m2
09:54 73.2 °F 48 °F 29.8 in NNW 7.6 mph 13 mph 41% 0 in 472 W/m2
09:59 73.4 °F 48.9 °F 29.8 in NNW 6.9 mph 12.1 mph 42% 0 in 514 W/m2
10:04 73.6 °F 48.6 °F 29.8 in NNW 6.9 mph 12.1 mph 41% 0 in 430 W/m2
10:09 73.4 °F 48.4 °F 29.8 in NNW 6 mph 13.6 mph 41% 0 in 522 W/m2
10:14 73.9 °F 49.5 °F 29.8 in NNW 2.2 mph 13.6 mph 42% 0 in 433 W/m2
10:19 74.1 °F 48.9 °F 29.8 in NNW 3.8 mph 9.8 mph 41% 0 in 662 W/m2
10:24 74.7 °F 48.7 °F 29.8 in NNW 6 mph 9.8 mph 40% 0 in 728 W/m2
10:29 75.4 °F 48 °F 29.8 in NNW 4.5 mph 9.8 mph 38% 0 in 694 W/m2
10:34 75 °F 48.4 °F 29.8 in North 6.9 mph 10.7 mph 39% 0 in 738 W/m2
10:39 75 °F 49.1 °F 29.8 in North 5.4 mph 10.7 mph 40% 0 in 620 W/m2
10:44 75.7 °F 47.7 °F 29.8 in NW 6 mph 8.3 mph 37% 0 in 538 W/m2
10:49 75.6 °F 47.5 °F 29.8 in NW 2.2 mph 10.7 mph 37% 0 in 648 W/m2
10:54 76.1 °F 48.7 °F 29.8 in NW 6 mph 10.7 mph 38% 0 in 768 W/m2
10:59 76.8 °F 49.3 °F 29.8 in WNW 1.6 mph 9.2 mph 38% 0 in 830 W/m2
11:04 77.9 °F 48.7 °F 29.8 in West 5.4 mph 8.3 mph 36% 0 in 703 W/m2
11:09 75.7 °F 53.4 °F 29.8 in SSW 6.9 mph 12.1 mph 46% 0 in 623 W/m2
11:14 74.7 °F 54.9 °F 29.8 in South 6.9 mph 15.2 mph 50% 0 in 869 W/m2
11:19 73.2 °F 55.6 °F 29.8 in South 6 mph 15.2 mph 54% 0 in 899 W/m2
11:24 73.9 °F 53.1 °F 29.8 in SSE 6 mph 14.5 mph 48% 0 in 923 W/m2
11:29 74.8 °F 52.7 °F 29.8 in South 3.8 mph 9.8 mph 46% 0 in 862 W/m2
11:34 75.6 °F 54 °F 29.8 in South 6.9 mph 9.8 mph 47% 0 in 919 W/m2
11:40 76.1 °F 55 °F 29.8 in South 5.4 mph 12.1 mph 48% 0 in 914 W/m2
11:45 74.8 °F 52.7 °F 29.8 in South 7.6 mph 12.1 mph 46% 0 in 855 W/m2
11:50 75.2 °F 53.1 °F 29.8 in South 2.2 mph 10.7 mph 46% 0 in 937 W/m2
11:55 76.3 °F 56.3 °F 29.8 in SE 3.1 mph 9.8 mph 50% 0 in 949 W/m2
12:00 75.2 °F 55.9 °F 29.8 in SSE 6 mph 9.8 mph 51% 0 in 900 W/m2
12:05 74.7 °F 55.4 °F 29.8 in South 6.9 mph 9.8 mph 51% 0 in 975 W/m2
12:10 74.5 °F 53.4 °F 29.8 in South 7.6 mph 9.8 mph 48% 0 in 970 W/m2
12:15 75 °F 55.8 °F 29.8 in South 3.8 mph 11.4 mph 51% 0 in 959 W/m2
12:20 74.7 °F 54.3 °F 29.8 in SSE 6 mph 11.4 mph 49% 0 in 821 W/m2
12:25 74.1 °F 51.4 °F 29.8 in SSE 4.5 mph 9.8 mph 45% 0 in 922 W/m2
12:30 74.7 °F 52 °F 29.8 in South 9.2 mph 11.4 mph 45% 0 in 927 W/m2
12:36 74.8 °F 52.7 °F 29.8 in South 6.9 mph 11.4 mph 46% 0 in 974 W/m2
12:41 73.9 °F 52 °F 29.8 in SSE 5.4 mph 11.4 mph 46% 0 in 982 W/m2
12:46 74.5 °F 52.3 °F 29.8 in SSE 6 mph 11.4 mph 46% 0 in 974 W/m2
12:51 74.7 °F 49.5 °F 29.8 in SSE 9.2 mph 11.4 mph 41% 0 in 980 W/m2
12:56 73.9 °F 45.3 °F 29.8 in SSE 5.4 mph 12.1 mph 36% 0 in 961 W/m2
13:01 74.3 °F 45 °F 29.8 in South 6 mph 12.1 mph 35% 0 in 967 W/m2
13:06 74.5 °F 45.1 °F 29.8 in SSE 4.5 mph 11.4 mph 35% 0 in 961 W/m2
13:11 75.7 °F 45.3 °F 29.8 in SSE 2.2 mph 11.4 mph 34% 0 in 962 W/m2
13:16 77.2 °F 43.3 °F 29.8 in South 3.1 mph 9.8 mph 30% 0 in 970 W/m2
13:21 76.8 °F 45.7 °F 29.8 in South 5.4 mph 9.2 mph 33% 0 in 963 W/m2
13:26 77 °F 43.2 °F 29.8 in SSE 3.8 mph 9.2 mph 30% 0 in 961 W/m2
13:31 77.2 °F 46.8 °F 29.8 in South 3.1 mph 7.6 mph 34% 0 in 956 W/m2
13:36 77.5 °F 46.2 °F 29.8 in SSE 5.4 mph 9.2 mph 33% 0 in 952 W/m2
13:41 77 °F 48 °F 29.8 in SE 4.5 mph 9.2 mph 36% 0 in 942 W/m2
13:46 76.6 °F 48.4 °F 29.8 in SE 5.4 mph 9.2 mph 37% 0 in 936 W/m2
13:51 77 °F 46.6 °F 29.8 in SSE 5.4 mph 9.2 mph 34% 0 in 935 W/m2
13:56 76.8 °F 47.1 °F 29.8 in SSE 4.5 mph 11.4 mph 35% 0 in 929 W/m2
14:01 77 °F 44.1 °F 29.8 in SE 3.1 mph 11.4 mph 31% 0 in 921 W/m2
14:06 77.4 °F 41.7 °F 29.8 in ESE 3.8 mph 10.7 mph 28% 0 in 917 W/m2
14:11 77.2 °F 42.4 °F 29.8 in SE 5.4 mph 9.8 mph 29% 0 in 918 W/m2
14:16 77.2 °F 45.1 °F 29.8 in SSE 3.1 mph 9.8 mph 32% 0 in 913 W/m2
14:21 77.7 °F 47.1 °F 29.8 in SE 3.8 mph 9.2 mph 34% 0 in 906 W/m2
14:26 77.2 °F 47.5 °F 29.8 in SSE 3.1 mph 10.7 mph 35% 0 in 900 W/m2
14:31 77.4 °F 50.5 °F 29.8 in SSE 4.5 mph 10.7 mph 39% 0 in 897 W/m2
14:36 77.5 °F 46.9 °F 29.8 in South 3.1 mph 8.3 mph 34% 0 in 888 W/m2
14:41 77.5 °F 46.9 °F 29.8 in SSE 4.5 mph 8.3 mph 34% 0 in 867 W/m2
14:46 77.5 °F 50 °F 29.8 in SE 3.8 mph 9.2 mph 38% 0 in 875 W/m2
14:51 77.4 °F 46 °F 29.8 in SE 5.4 mph 9.2 mph 33% 0 in 814 W/m2
14:56 77.4 °F 46.8 °F 29.8 in ESE 3.8 mph 9.2 mph 34% 0 in 848 W/m2
15:01 78.1 °F 44.2 °F 29.8 in SE 3.8 mph 8.3 mph 30% 0 in 838 W/m2
15:06 78.1 °F 49.6 °F 29.8 in SSE 3.8 mph 12.1 mph 37% 0 in 827 W/m2
15:11 77.9 °F 48 °F 29.8 in SSE 3.1 mph 12.1 mph 35% 0 in 827 W/m2
15:16 78.4 °F 50 °F 29.8 in SSE 4.5 mph 9.8 mph 37% 0 in 751 W/m2
15:21 78.4 °F 46.2 °F 29.8 in SE 3.1 mph 9.8 mph 32% 0 in 686 W/m2
15:26 78.6 °F 44.6 °F 29.8 in SE 6 mph 9.8 mph 30% 0 in 728 W/m2
15:31 78.1 °F 48.9 °F 29.8 in SSE 4.5 mph 9.8 mph 36% 0 in 703 W/m2
15:36 78.3 °F 49.3 °F 29.8 in SE 2.2 mph 9.8 mph 36% 0 in 728 W/m2
15:41 78.4 °F 49.3 °F 29.8 in SE 3.8 mph 7.6 mph 36% 0 in 708 W/m2
15:46 78.4 °F 47.8 °F 29.8 in SE 2.2 mph 8.3 mph 34% 0 in 608 W/m2
15:51 78.8 °F 47.3 °F 29.8 in SE 5.4 mph 9.2 mph 33% 0 in 731 W/m2
15:56 78.4 °F 47.8 °F 29.8 in SE 3.8 mph 9.2 mph 34% 0 in 720 W/m2
16:01 79.3 °F 46.9 °F 29.8 in SSE 0.7 mph 9.2 mph 32% 0 in 690 W/m2
16:06 80.1 °F 50 °F 29.8 in SSE 5.4 mph 11.4 mph 35% 0 in 419 W/m2
16:11 78.3 °F 54 °F 29.8 in SE 5.4 mph 11.4 mph 43% 0 in 652 W/m2
16:16 77.4 °F 53.8 °F 29.8 in SE 3.1 mph 11.4 mph 44% 0 in 631 W/m2
16:21 77.9 °F 53.6 °F 29.8 in SSE 4.5 mph 11.4 mph 43% 0 in 571 W/m2
16:26 77.9 °F 52.3 °F 29.8 in SSE 3.1 mph 11.4 mph 41% 0 in 572 W/m2
16:31 78.6 °F 54.3 °F 29.8 in SSE 9.8 mph 12.1 mph 43% 0 in 616 W/m2
16:36 77 °F 55.2 °F 29.8 in SSE 3.8 mph 13 mph 47% 0 in 438 W/m2
16:41 76.1 °F 54 °F 29.8 in SSE 3.8 mph 13 mph 46% 0 in 517 W/m2
16:46 76.8 °F 54 °F 29.8 in SSE 3.8 mph 9.8 mph 45% 0 in 553 W/m2
16:51 76.6 °F 53.8 °F 29.8 in SSE 2.2 mph 9.8 mph 45% 0 in 475 W/m2
16:56 77.2 °F 54.1 °F 29.8 in SE 4.5 mph 9.8 mph 45% 0 in 565 W/m2
17:01 78.1 °F 51.8 °F 29.8 in SE 3.1 mph 9.8 mph 40% 0 in 374 W/m2
17:06 79.3 °F 47.8 °F 29.8 in ESE 1.6 mph 9.8 mph 33% 0 in 429 W/m2
17:11 80.2 °F 52.3 °F 29.8 in ESE 3.8 mph 6.9 mph 38% 0 in 502 W/m2
17:16 80.4 °F 54.7 °F 29.8 in ESE 3.1 mph 7.6 mph 41% 0 in 432 W/m2
17:21 80.1 °F 52.2 °F 29.8 in East 4.5 mph 9.2 mph 38% 0 in 455 W/m2
17:26 80.2 °F 52.3 °F 29.8 in ESE 2.2 mph 9.2 mph 38% 0 in 375 W/m2
17:31 80.8 °F 53.6 °F 29.8 in South 4.5 mph 9.2 mph 39% 0 in 455 W/m2
17:36 80.2 °F 55.8 °F 29.8 in South 4.5 mph 9.2 mph 43% 0 in 418 W/m2
17:41 80.2 °F 55 °F 29.8 in ESE 4.5 mph 8.3 mph 42% 0 in 406 W/m2
17:46 80.1 °F 54.9 °F 29.8 in ESE 3.8 mph 8.3 mph 42% 0 in 404 W/m2
17:51 81.1 °F 55.2 °F 29.8 in SE 3.8 mph 8.3 mph 41% 0 in 417 W/m2
17:56 81.1 °F 55.9 °F 29.8 in SE 2.2 mph 7.6 mph 42% 0 in 372 W/m2
18:01 81.3 °F 54.7 °F 29.8 in ESE 1.6 mph 7.6 mph 40% 0 in 354 W/m2
18:06 82.8 °F 55.9 °F 29.8 in SE 2.2 mph 7.6 mph 40% 0 in 366 W/m2
18:11 84 °F 57 °F 29.8 in SE 1.6 mph 6 mph 40% 0 in 334 W/m2
18:16 83.3 °F 56.5 °F 29.8 in ESE 3.1 mph 6.9 mph 40% 0 in 304 W/m2
18:21 82 °F 56.7 °F 29.8 in SSE 3.8 mph 9.8 mph 42% 0 in 330 W/m2
18:26 80.6 °F 56.1 °F 29.8 in SSE 5.4 mph 9.8 mph 43% 0 in 306 W/m2
18:31 79.7 °F 57 °F 29.8 in SSE 3.1 mph 9.8 mph 46% 0 in 292 W/m2
18:36 80.4 °F 57.2 °F 29.8 in SSE 4.5 mph 9.2 mph 45% 0 in 275 W/m2
18:41 80.6 °F 56.7 °F 29.8 in SSE 3.8 mph 7.6 mph 44% 0 in 260 W/m2
18:46 80.2 °F 56.5 °F 29.8 in SSE 5.4 mph 8.3 mph 44% 0 in 241 W/m2
18:51 79.7 °F 56.5 °F 29.8 in SE 3.8 mph 9.2 mph 45% 0 in 236 W/m2
18:56 79.5 °F 56.5 °F 29.8 in SE 2.2 mph 9.2 mph 45% 0 in 220 W/m2
19:01 78.6 °F 56.1 °F 29.8 in SE 2.2 mph 7.6 mph 46% 0 in 192 W/m2
19:06 78.1 °F 56.8 °F 29.8 in SE 1.6 mph 7.6 mph 48% 0 in 195 W/m2
19:11 78.3 °F 56.5 °F 29.8 in SSE 0.7 mph 6 mph 47% 0 in 87 W/m2
19:16 76.6 °F 57.2 °F 29.8 in SSE 1.6 mph 4.5 mph 51% 0 in 99 W/m2
19:21 77.2 °F 55.9 °F 29.8 in ESE 0.7 mph 5.4 mph 48% 0 in 160 W/m2
19:26 78.4 °F 55.9 °F 29.8 in ESE 0.7 mph 5.4 mph 46% 0 in 150 W/m2
19:31 78.6 °F 55.6 °F 29.8 in ESE 0.7 mph 3.8 mph 45% 0 in 106 W/m2
19:36 78.6 °F 56.1 °F 29.8 in South 2.2 mph 3.1 mph 46% 0 in 127 W/m2
19:41 78.1 °F 56.1 °F 29.8 in SW 2.2 mph 3.8 mph 47% 0 in 117 W/m2
19:46 77.4 °F 56.1 °F 29.8 in SW 1.6 mph 3.8 mph 48% 0 in 104 W/m2
19:51 77.4 °F 56.7 °F 29.8 in SW 0.7 mph 3.1 mph 49% 0 in 91 W/m2
19:56 77.4 °F 57.4 °F 29.8 in Calm   2.2 mph 50% 0 in 79 W/m2
20:01 77.7 °F 57.6 °F 29.8 in Calm   2.2 mph 50% 0 in 67 W/m2
20:06 77.7 °F 57.6 °F 29.8 in Calm   1.6 mph 50% 0 in 54 W/m2
20:11 77.2 °F 56.7 °F 29.8 in WNW 0.7 mph 1.6 mph 49% 0 in 43 W/m2
20:16 76.3 °F 56.8 °F 29.8 in Calm   1.6 mph 51% 0 in 32 W/m2
20:21 74.5 °F 56.8 °F 29.8 in Calm   2.2 mph 54% 0 in 19 W/m2
20:26 72.7 °F 56.1 °F 29.8 in Calm   2.2 mph 56% 0 in 14 W/m2
20:31 71.6 °F 56.5 °F 29.8 in Calm   1.6 mph 59% 0 in 10 W/m2
20:36 70.7 °F 55.8 °F 29.8 in Calm   1.6 mph 59% 0 in 6 W/m2
20:41 70.2 °F 55.8 °F 29.8 in Calm   1.6 mph 60% 0 in 3 W/m2
20:46 69.6 °F 55.9 °F 29.8 in Calm   1.6 mph 62% 0 in 1 W/m2
20:51 69.3 °F 56.7 °F 29.8 in ESE 1.6 mph 3.1 mph 64% 0 in 0 W/m2
20:56 69.1 °F 56.5 °F 29.8 in Calm   3.1 mph 64% 0 in 0 W/m2
21:01 68.7 °F 56.5 °F 29.9 in Calm   2.2 mph 65% 0 in 0 W/m2
21:06 68.4 °F 56.1 °F 29.9 in Calm   2.2 mph 65% 0 in 0 W/m2
21:11 68 °F 56.7 °F 29.9 in Calm   2.2 mph 67% 0 in 0 W/m2
21:16 67.5 °F 56.7 °F 29.9 in Calm   2.2 mph 68% 0 in 0 W/m2
21:21 67.1 °F 56.1 °F 29.9 in Calm   0.7 mph 68% 0 in 0 W/m2
21:26 66.9 °F 55.9 °F 29.9 in Calm     68% 0 in 0 W/m2
21:31 66.6 °F 56.1 °F 29.9 in Calm   1.6 mph 69% 0 in 0 W/m2
21:36 66.4 °F 56.3 °F 29.9 in Calm   1.6 mph 70% 0 in 0 W/m2
21:41 66 °F 56.5 °F 29.9 in Calm   1.6 mph 71% 0 in 0 W/m2
21:46 65.8 °F 57 °F 29.9 in South 1.6 mph 3.8 mph 73% 0 in 0 W/m2
21:51 66.2 °F 58.5 °F 29.9 in Calm   4.5 mph 76% 0 in 0 W/m2
21:56 66 °F 58.6 °F 29.9 in Calm   4.5 mph 77% 0 in 0 W/m2
22:01 65.7 °F 57.9 °F 29.9 in Calm   0.7 mph 76% 0 in 0 W/m2
22:06 65.1 °F 57.4 °F 29.9 in Calm     76% 0 in 0 W/m2
22:11 64.9 °F 57.6 °F 29.9 in Calm     77% 0 in 0 W/m2
22:16 64.8 °F 57 °F 29.9 in Calm     76% 0 in 0 W/m2
22:22 64.6 °F 56.8 °F 29.9 in Calm     76% 0 in 0 W/m2
22:27 64.2 °F 56.5 °F 29.9 in Calm     76% 0 in 0 W/m2
22:32 63.7 °F 56.5 °F 29.9 in Calm     77% 0 in 0 W/m2
22:37 63.5 °F 56.1 °F 29.9 in Calm     77% 0 in 0 W/m2
22:42 63.3 °F 55.9 °F 29.9 in Calm     77% 0 in 0 W/m2
22:47 63.1 °F 56.1 °F 29.9 in Calm     78% 0 in 0 W/m2
22:52 63 °F 55.9 °F 29.9 in Calm     78% 0 in 0 W/m2
22:57 63 °F 57 °F 29.9 in Calm     81% 0 in 0 W/m2
23:02 62.6 °F 56.7 °F 29.9 in Calm     81% 0 in 0 W/m2
23:07 62.4 °F 57.2 °F 29.9 in South 3.1 mph 4.5 mph 83% 0 in 0 W/m2
23:12 62.8 °F 57.9 °F 29.9 in SW 4.5 mph 6.9 mph 84% 0 in 0 W/m2
23:17 63.3 °F 58.8 °F 29.9 in SW 3.1 mph 6.9 mph 85% 0 in 0 W/m2
23:22 63.7 °F 59.4 °F 29.9 in SW 3.8 mph 6 mph 86% 0 in 0 W/m2
23:27 64 °F 59.7 °F 29.9 in SW 3.8 mph 6.9 mph 86% 0 in 0 W/m2
23:32 64.2 °F 60.1 °F 29.9 in SSW 3.1 mph 6.9 mph 86% 0 in 0 W/m2
23:37 64.4 °F 60.4 °F 29.9 in SSW 2.2 mph 6.9 mph 87% 0 in 0 W/m2
23:42 64.2 °F 60.1 °F 29.9 in SW 1.6 mph 5.4 mph 86% 0 in 0 W/m2
23:47 63.9 °F 59.5 °F 29.9 in WSW 1.6 mph 5.4 mph 86% 0 in 0 W/m2
23:52 63.3 °F 58.8 °F 29.9 in NW 2.2 mph 3.8 mph 85% 0 in 0 W/m2
23:57 62.4 °F 57.6 °F 29.9 in NW 2.2 mph 5.4 mph 84% 0 in 0 W/m2
Northern Hawkes Bay. New Zealand Historic Data
Compliments of Weather Underground - 2 mb